sensor_id;sensor_type;location;lat;lon;timestamp;temperature;humidity
30250;DHT22;17064;47.974;13.826;2023-12-20T00:00:39;1.30;99.90
30250;DHT22;17064;47.974;13.826;2023-12-20T00:05:58;1.30;99.90
30250;DHT22;17064;47.974;13.826;2023-12-20T00:11:17;1.30;99.90
30250;DHT22;17064;47.974;13.826;2023-12-20T00:16:36;1.30;99.90
30250;DHT22;17064;47.974;13.826;2023-12-20T00:21:56;1.30;99.90
30250;DHT22;17064;47.974;13.826;2023-12-20T00:27:15;1.30;99.90
30250;DHT22;17064;47.974;13.826;2023-12-20T00:32:35;1.30;99.90
30250;DHT22;17064;47.974;13.826;2023-12-20T00:37:55;1.30;99.90
30250;DHT22;17064;47.974;13.826;2023-12-20T00:43:14;1.30;99.90
30250;DHT22;17064;47.974;13.826;2023-12-20T00:48:33;1.50;99.90
30250;DHT22;17064;47.974;13.826;2023-12-20T00:53:52;2.00;99.90
30250;DHT22;17064;47.974;13.826;2023-12-20T00:59:13;2.70;99.90
30250;DHT22;17064;47.974;13.826;2023-12-20T01:04:33;3.40;99.90
30250;DHT22;17064;47.974;13.826;2023-12-20T01:09:53;3.80;99.90
30250;DHT22;17064;47.974;13.826;2023-12-20T01:15:13;3.90;99.90
30250;DHT22;17064;47.974;13.826;2023-12-20T01:20:32;3.80;99.90
30250;DHT22;17064;47.974;13.826;2023-12-20T01:25:51;3.90;99.90
30250;DHT22;17064;47.974;13.826;2023-12-20T01:31:10;4.10;99.90
30250;DHT22;17064;47.974;13.826;2023-12-20T01:36:29;4.20;99.90
30250;DHT22;17064;47.974;13.826;2023-12-20T01:41:48;4.30;99.90
30250;DHT22;17064;47.974;13.826;2023-12-20T01:47:08;4.70;99.90
30250;DHT22;17064;47.974;13.826;2023-12-20T01:52:28;4.70;99.90
30250;DHT22;17064;47.974;13.826;2023-12-20T01:57:47;4.70;99.90
30250;DHT22;17064;47.974;13.826;2023-12-20T02:03:06;4.70;99.90
30250;DHT22;17064;47.974;13.826;2023-12-20T02:08:26;4.90;99.90
30250;DHT22;17064;47.974;13.826;2023-12-20T02:13:45;5.10;99.90
30250;DHT22;17064;47.974;13.826;2023-12-20T02:19:09;5.20;99.90
30250;DHT22;17064;47.974;13.826;2023-12-20T02:24:32;5.30;99.90
30250;DHT22;17064;47.974;13.826;2023-12-20T02:29:51;5.30;99.90
30250;DHT22;17064;47.974;13.826;2023-12-20T02:35:11;5.30;99.90
30250;DHT22;17064;47.974;13.826;2023-12-20T02:40:30;5.30;99.90
30250;DHT22;17064;47.974;13.826;2023-12-20T02:45:49;5.20;99.90
30250;DHT22;17064;47.974;13.826;2023-12-20T02:51:08;5.10;99.90
30250;DHT22;17064;47.974;13.826;2023-12-20T02:56:27;5.00;99.90
30250;DHT22;17064;47.974;13.826;2023-12-20T03:01:46;4.80;99.90
30250;DHT22;17064;47.974;13.826;2023-12-20T03:07:06;4.50;99.90
30250;DHT22;17064;47.974;13.826;2023-12-20T03:12:25;4.40;99.90
30250;DHT22;17064;47.974;13.826;2023-12-20T03:17:44;4.30;99.90
30250;DHT22;17064;47.974;13.826;2023-12-20T03:23:04;4.20;99.90
30250;DHT22;17064;47.974;13.826;2023-12-20T03:28:23;4.10;99.90
30250;DHT22;17064;47.974;13.826;2023-12-20T03:33:42;3.90;99.90
30250;DHT22;17064;47.974;13.826;2023-12-20T03:39:01;3.70;99.90
30250;DHT22;17064;47.974;13.826;2023-12-20T03:44:21;3.50;99.90
30250;DHT22;17064;47.974;13.826;2023-12-20T03:49:40;3.40;99.90
30250;DHT22;17064;47.974;13.826;2023-12-20T03:54:59;3.30;99.90
30250;DHT22;17064;47.974;13.826;2023-12-20T04:00:18;3.40;99.90
30250;DHT22;17064;47.974;13.826;2023-12-20T04:05:37;3.40;99.90
30250;DHT22;17064;47.974;13.826;2023-12-20T04:10:57;3.30;99.90
30250;DHT22;17064;47.974;13.826;2023-12-20T04:16:16;3.50;99.90
30250;DHT22;17064;47.974;13.826;2023-12-20T04:21:35;3.80;99.90
30250;DHT22;17064;47.974;13.826;2023-12-20T04:26:54;4.10;99.90
30250;DHT22;17064;47.974;13.826;2023-12-20T04:32:13;4.40;99.90
30250;DHT22;17064;47.974;13.826;2023-12-20T04:37:33;4.70;99.90
30250;DHT22;17064;47.974;13.826;2023-12-20T04:42:52;4.80;99.90
30250;DHT22;17064;47.974;13.826;2023-12-20T04:48:12;5.10;99.90
30250;DHT22;17064;47.974;13.826;2023-12-20T04:53:31;5.30;99.90
30250;DHT22;17064;47.974;13.826;2023-12-20T04:58:51;5.60;99.90
30250;DHT22;17064;47.974;13.826;2023-12-20T05:04:10;5.70;99.90
30250;DHT22;17064;47.974;13.826;2023-12-20T05:09:29;5.80;99.90
30250;DHT22;17064;47.974;13.826;2023-12-20T05:14:48;5.90;99.90
30250;DHT22;17064;47.974;13.826;2023-12-20T05:20:08;6.10;99.90
30250;DHT22;17064;47.974;13.826;2023-12-20T05:25:27;6.30;99.90
30250;DHT22;17064;47.974;13.826;2023-12-20T05:30:47;6.30;99.90
30250;DHT22;17064;47.974;13.826;2023-12-20T05:36:06;6.40;99.90
30250;DHT22;17064;47.974;13.826;2023-12-20T05:41:31;6.40;99.90
30250;DHT22;17064;47.974;13.826;2023-12-20T05:46:50;6.50;99.90
30250;DHT22;17064;47.974;13.826;2023-12-20T05:52:09;6.60;99.90
30250;DHT22;17064;47.974;13.826;2023-12-20T05:57:28;6.60;99.90
30250;DHT22;17064;47.974;13.826;2023-12-20T06:02:48;6.50;99.90
30250;DHT22;17064;47.974;13.826;2023-12-20T06:08:07;6.50;99.90
30250;DHT22;17064;47.974;13.826;2023-12-20T06:13:26;6.50;99.90
30250;DHT22;17064;47.974;13.826;2023-12-20T06:18:45;6.60;99.90
30250;DHT22;17064;47.974;13.826;2023-12-20T06:24:05;6.70;99.90
30250;DHT22;17064;47.974;13.826;2023-12-20T06:29:25;6.80;99.90
30250;DHT22;17064;47.974;13.826;2023-12-20T06:34:45;6.90;99.90
30250;DHT22;17064;47.974;13.826;2023-12-20T06:40:04;6.80;99.90
30250;DHT22;17064;47.974;13.826;2023-12-20T06:45:24;6.80;99.90
30250;DHT22;17064;47.974;13.826;2023-12-20T06:50:43;6.70;99.90
30250;DHT22;17064;47.974;13.826;2023-12-20T06:56:02;6.70;99.90
30250;DHT22;17064;47.974;13.826;2023-12-20T07:01:22;6.60;99.90
30250;DHT22;17064;47.974;13.826;2023-12-20T07:06:41;6.60;99.90
30250;DHT22;17064;47.974;13.826;2023-12-20T07:12:00;6.60;99.90
30250;DHT22;17064;47.974;13.826;2023-12-20T07:17:19;6.50;99.90
30250;DHT22;17064;47.974;13.826;2023-12-20T07:22:40;6.40;99.90
30250;DHT22;17064;47.974;13.826;2023-12-20T07:28:00;6.30;99.90
30250;DHT22;17064;47.974;13.826;2023-12-20T07:33:19;6.20;99.90
30250;DHT22;17064;47.974;13.826;2023-12-20T07:38:38;6.10;99.90
30250;DHT22;17064;47.974;13.826;2023-12-20T07:43:57;5.90;99.90
30250;DHT22;17064;47.974;13.826;2023-12-20T07:49:19;5.70;99.90
30250;DHT22;17064;47.974;13.826;2023-12-20T07:54:38;5.50;99.90
30250;DHT22;17064;47.974;13.826;2023-12-20T07:59:58;5.50;99.90
30250;DHT22;17064;47.974;13.826;2023-12-20T08:05:17;5.40;99.90
30250;DHT22;17064;47.974;13.826;2023-12-20T08:10:37;5.30;99.90
30250;DHT22;17064;47.974;13.826;2023-12-20T08:15:56;5.20;99.90
30250;DHT22;17064;47.974;13.826;2023-12-20T08:21:16;5.10;99.90
30250;DHT22;17064;47.974;13.826;2023-12-20T08:26:35;5.10;99.90
30250;DHT22;17064;47.974;13.826;2023-12-20T08:31:54;5.10;99.90
30250;DHT22;17064;47.974;13.826;2023-12-20T08:37:14;5.10;99.90
30250;DHT22;17064;47.974;13.826;2023-12-20T08:42:33;5.00;99.90
30250;DHT22;17064;47.974;13.826;2023-12-20T08:47:52;4.90;99.90
30250;DHT22;17064;47.974;13.826;2023-12-20T08:53:11;4.90;99.90
30250;DHT22;17064;47.974;13.826;2023-12-20T08:58:30;4.80;99.90
30250;DHT22;17064;47.974;13.826;2023-12-20T09:03:49;4.80;99.90
30250;DHT22;17064;47.974;13.826;2023-12-20T09:09:09;4.90;99.90
30250;DHT22;17064;47.974;13.826;2023-12-20T09:14:32;4.90;99.90
30250;DHT22;17064;47.974;13.826;2023-12-20T09:19:51;4.90;99.90
30250;DHT22;17064;47.974;13.826;2023-12-20T09:25:13;5.00;99.90
30250;DHT22;17064;47.974;13.826;2023-12-20T09:30:33;5.00;99.90
30250;DHT22;17064;47.974;13.826;2023-12-20T09:35:54;5.00;99.90
30250;DHT22;17064;47.974;13.826;2023-12-20T09:41:13;5.10;99.90
30250;DHT22;17064;47.974;13.826;2023-12-20T09:46:32;5.20;99.90
30250;DHT22;17064;47.974;13.826;2023-12-20T09:51:54;5.20;99.90
30250;DHT22;17064;47.974;13.826;2023-12-20T09:57:13;5.20;99.90
30250;DHT22;17064;47.974;13.826;2023-12-20T10:02:34;5.20;99.90
30250;DHT22;17064;47.974;13.826;2023-12-20T10:07:55;5.10;99.90
30250;DHT22;17064;47.974;13.826;2023-12-20T10:13:15;5.20;99.90
30250;DHT22;17064;47.974;13.826;2023-12-20T10:18:35;5.20;99.90
30250;DHT22;17064;47.974;13.826;2023-12-20T10:23:56;5.20;99.90
30250;DHT22;17064;47.974;13.826;2023-12-20T10:29:15;5.20;99.90
30250;DHT22;17064;47.974;13.826;2023-12-20T10:34:34;5.20;99.90
30250;DHT22;17064;47.974;13.826;2023-12-20T10:39:54;5.20;99.90
30250;DHT22;17064;47.974;13.826;2023-12-20T10:45:16;5.20;99.90
30250;DHT22;17064;47.974;13.826;2023-12-20T10:50:41;5.30;99.90
30250;DHT22;17064;47.974;13.826;2023-12-20T10:56:02;5.30;99.90
30250;DHT22;17064;47.974;13.826;2023-12-20T11:01:23;5.30;99.90
30250;DHT22;17064;47.974;13.826;2023-12-20T11:06:53;5.30;99.90
30250;DHT22;17064;47.974;13.826;2023-12-20T11:12:18;5.30;99.90
30250;DHT22;17064;47.974;13.826;2023-12-20T11:17:39;5.40;99.90
30250;DHT22;17064;47.974;13.826;2023-12-20T11:22:59;5.40;99.90
30250;DHT22;17064;47.974;13.826;2023-12-20T11:28:24;5.40;99.90
30250;DHT22;17064;47.974;13.826;2023-12-20T11:33:44;5.50;99.90
30250;DHT22;17064;47.974;13.826;2023-12-20T11:39:07;5.50;99.90
30250;DHT22;17064;47.974;13.826;2023-12-20T11:44:30;5.50;99.90
30250;DHT22;17064;47.974;13.826;2023-12-20T11:49:50;5.50;99.90
30250;DHT22;17064;47.974;13.826;2023-12-20T11:55:10;5.50;99.90
30250;DHT22;17064;47.974;13.826;2023-12-20T12:00:30;5.50;99.90
30250;DHT22;17064;47.974;13.826;2023-12-20T12:05:50;5.50;99.90
30250;DHT22;17064;47.974;13.826;2023-12-20T12:11:09;5.40;99.90
30250;DHT22;17064;47.974;13.826;2023-12-20T12:16:29;5.40;99.90
30250;DHT22;17064;47.974;13.826;2023-12-20T12:21:50;5.30;99.90
30250;DHT22;17064;47.974;13.826;2023-12-20T12:27:10;5.20;99.90
30250;DHT22;17064;47.974;13.826;2023-12-20T12:32:29;5.20;99.90
30250;DHT22;17064;47.974;13.826;2023-12-20T12:37:49;5.20;99.90
30250;DHT22;17064;47.974;13.826;2023-12-20T12:43:08;5.10;99.90
30250;DHT22;17064;47.974;13.826;2023-12-20T12:48:27;5.20;99.90
30250;DHT22;17064;47.974;13.826;2023-12-20T12:53:47;5.20;99.90
30250;DHT22;17064;47.974;13.826;2023-12-20T12:59:06;5.10;99.90
30250;DHT22;17064;47.974;13.826;2023-12-20T13:04:27;5.10;99.90
30250;DHT22;17064;47.974;13.826;2023-12-20T13:09:46;5.00;99.90
30250;DHT22;17064;47.974;13.826;2023-12-20T13:15:06;5.00;99.90
30250;DHT22;17064;47.974;13.826;2023-12-20T13:20:26;5.00;99.90
30250;DHT22;17064;47.974;13.826;2023-12-20T13:25:45;5.00;99.90
30250;DHT22;17064;47.974;13.826;2023-12-20T13:31:06;5.00;99.90
30250;DHT22;17064;47.974;13.826;2023-12-20T13:36:25;4.90;99.90
30250;DHT22;17064;47.974;13.826;2023-12-20T13:41:44;4.90;99.90
30250;DHT22;17064;47.974;13.826;2023-12-20T13:47:03;4.80;99.90
30250;DHT22;17064;47.974;13.826;2023-12-20T13:52:23;4.80;99.90
30250;DHT22;17064;47.974;13.826;2023-12-20T13:57:42;4.80;99.90
30250;DHT22;17064;47.974;13.826;2023-12-20T14:03:03;4.80;99.90
30250;DHT22;17064;47.974;13.826;2023-12-20T14:08:22;4.80;99.90
30250;DHT22;17064;47.974;13.826;2023-12-20T14:13:42;4.90;99.90
30250;DHT22;17064;47.974;13.826;2023-12-20T14:19:02;4.90;99.90
30250;DHT22;17064;47.974;13.826;2023-12-20T14:24:22;4.90;99.90
30250;DHT22;17064;47.974;13.826;2023-12-20T14:29:41;5.00;99.90
30250;DHT22;17064;47.974;13.826;2023-12-20T14:35:00;4.90;99.90
30250;DHT22;17064;47.974;13.826;2023-12-20T14:40:20;4.90;99.90
30250;DHT22;17064;47.974;13.826;2023-12-20T14:45:39;4.80;99.90
30250;DHT22;17064;47.974;13.826;2023-12-20T14:50:58;4.90;99.90
30250;DHT22;17064;47.974;13.826;2023-12-20T14:56:18;4.80;99.90
30250;DHT22;17064;47.974;13.826;2023-12-20T15:01:37;4.90;99.90
30250;DHT22;17064;47.974;13.826;2023-12-20T15:06:57;4.90;99.90
30250;DHT22;17064;47.974;13.826;2023-12-20T15:12:16;4.90;99.90
30250;DHT22;17064;47.974;13.826;2023-12-20T15:17:35;4.90;99.90
30250;DHT22;17064;47.974;13.826;2023-12-20T15:22:55;5.00;99.90
30250;DHT22;17064;47.974;13.826;2023-12-20T15:28:18;5.00;99.90
30250;DHT22;17064;47.974;13.826;2023-12-20T15:33:37;4.70;99.90
30250;DHT22;17064;47.974;13.826;2023-12-20T15:38:57;4.50;99.90
30250;DHT22;17064;47.974;13.826;2023-12-20T15:44:16;4.30;99.90
30250;DHT22;17064;47.974;13.826;2023-12-20T15:49:35;4.20;99.90
30250;DHT22;17064;47.974;13.826;2023-12-20T15:54:54;4.00;99.90
30250;DHT22;17064;47.974;13.826;2023-12-20T16:00:14;3.90;99.90
30250;DHT22;17064;47.974;13.826;2023-12-20T16:05:33;3.80;99.90
30250;DHT22;17064;47.974;13.826;2023-12-20T16:10:52;3.80;99.90
30250;DHT22;17064;47.974;13.826;2023-12-20T16:16:12;3.70;99.90
30250;DHT22;17064;47.974;13.826;2023-12-20T16:21:31;3.70;99.90
30250;DHT22;17064;47.974;13.826;2023-12-20T16:26:51;3.70;99.90
30250;DHT22;17064;47.974;13.826;2023-12-20T16:32:10;3.70;99.90
30250;DHT22;17064;47.974;13.826;2023-12-20T16:37:29;3.70;99.90
30250;DHT22;17064;47.974;13.826;2023-12-20T16:42:48;3.60;99.90
30250;DHT22;17064;47.974;13.826;2023-12-20T16:48:07;3.70;99.90
30250;DHT22;17064;47.974;13.826;2023-12-20T16:53:27;3.70;99.90
30250;DHT22;17064;47.974;13.826;2023-12-20T16:58:47;3.60;99.90
30250;DHT22;17064;47.974;13.826;2023-12-20T17:04:06;3.60;99.90
30250;DHT22;17064;47.974;13.826;2023-12-20T17:09:25;3.60;99.90
30250;DHT22;17064;47.974;13.826;2023-12-20T17:14:46;3.60;99.90
30250;DHT22;17064;47.974;13.826;2023-12-20T17:20:06;3.50;99.90
30250;DHT22;17064;47.974;13.826;2023-12-20T17:25:26;3.50;99.90
30250;DHT22;17064;47.974;13.826;2023-12-20T17:30:46;3.50;99.90
30250;DHT22;17064;47.974;13.826;2023-12-20T17:36:05;3.50;99.90
30250;DHT22;17064;47.974;13.826;2023-12-20T17:41:25;3.50;99.90
30250;DHT22;17064;47.974;13.826;2023-12-20T17:46:45;3.50;99.90
30250;DHT22;17064;47.974;13.826;2023-12-20T17:52:04;3.50;99.90
30250;DHT22;17064;47.974;13.826;2023-12-20T17:57:26;3.50;99.90
30250;DHT22;17064;47.974;13.826;2023-12-20T18:02:45;3.60;99.90
30250;DHT22;17064;47.974;13.826;2023-12-20T18:08:05;3.60;99.90
30250;DHT22;17064;47.974;13.826;2023-12-20T18:13:25;3.60;99.90
30250;DHT22;17064;47.974;13.826;2023-12-20T18:18:45;3.60;99.90
30250;DHT22;17064;47.974;13.826;2023-12-20T18:24:06;3.60;99.90
30250;DHT22;17064;47.974;13.826;2023-12-20T18:29:26;3.60;99.90
30250;DHT22;17064;47.974;13.826;2023-12-20T18:34:47;3.70;99.90
30250;DHT22;17064;47.974;13.826;2023-12-20T18:40:07;3.70;99.90
30250;DHT22;17064;47.974;13.826;2023-12-20T18:45:28;3.60;99.90
30250;DHT22;17064;47.974;13.826;2023-12-20T18:50:48;3.50;99.90
30250;DHT22;17064;47.974;13.826;2023-12-20T18:56:08;3.60;99.90
30250;DHT22;17064;47.974;13.826;2023-12-20T19:01:28;3.50;99.90
30250;DHT22;17064;47.974;13.826;2023-12-20T19:06:48;3.50;99.90
30250;DHT22;17064;47.974;13.826;2023-12-20T19:12:08;3.50;99.90
30250;DHT22;17064;47.974;13.826;2023-12-20T19:17:29;3.50;99.90
30250;DHT22;17064;47.974;13.826;2023-12-20T19:22:49;3.50;99.90
30250;DHT22;17064;47.974;13.826;2023-12-20T19:28:09;3.60;99.90
30250;DHT22;17064;47.974;13.826;2023-12-20T19:33:29;3.60;99.90
30250;DHT22;17064;47.974;13.826;2023-12-20T19:38:54;3.70;99.90
30250;DHT22;17064;47.974;13.826;2023-12-20T19:44:16;3.70;99.90
30250;DHT22;17064;47.974;13.826;2023-12-20T19:49:39;3.70;99.90
30250;DHT22;17064;47.974;13.826;2023-12-20T19:55:00;3.70;99.90
30250;DHT22;17064;47.974;13.826;2023-12-20T20:00:20;3.60;99.90
30250;DHT22;17064;47.974;13.826;2023-12-20T20:05:40;3.50;99.90
30250;DHT22;17064;47.974;13.826;2023-12-20T20:11:02;3.50;99.90
30250;DHT22;17064;47.974;13.826;2023-12-20T20:16:23;3.50;99.90
30250;DHT22;17064;47.974;13.826;2023-12-20T20:21:43;3.40;99.90
30250;DHT22;17064;47.974;13.826;2023-12-20T20:27:04;3.40;99.90
30250;DHT22;17064;47.974;13.826;2023-12-20T20:32:24;3.30;99.90
30250;DHT22;17064;47.974;13.826;2023-12-20T20:37:46;3.30;99.90
30250;DHT22;17064;47.974;13.826;2023-12-20T20:43:07;3.40;99.90
30250;DHT22;17064;47.974;13.826;2023-12-20T20:48:27;3.40;99.90
30250;DHT22;17064;47.974;13.826;2023-12-20T20:53:47;3.50;99.90
30250;DHT22;17064;47.974;13.826;2023-12-20T20:59:07;3.50;99.90
30250;DHT22;17064;47.974;13.826;2023-12-20T21:04:27;3.40;99.90
30250;DHT22;17064;47.974;13.826;2023-12-20T21:09:46;3.50;99.90
30250;DHT22;17064;47.974;13.826;2023-12-20T21:15:07;3.60;99.90
30250;DHT22;17064;47.974;13.826;2023-12-20T21:20:26;3.70;99.90
30250;DHT22;17064;47.974;13.826;2023-12-20T21:25:45;3.70;99.90
30250;DHT22;17064;47.974;13.826;2023-12-20T21:31:04;3.70;99.90
30250;DHT22;17064;47.974;13.826;2023-12-20T21:36:24;3.70;99.90
30250;DHT22;17064;47.974;13.826;2023-12-20T21:41:43;3.70;99.90
30250;DHT22;17064;47.974;13.826;2023-12-20T21:47:02;3.80;99.90
30250;DHT22;17064;47.974;13.826;2023-12-20T21:52:21;3.80;99.90
30250;DHT22;17064;47.974;13.826;2023-12-20T21:57:40;3.80;99.90
30250;DHT22;17064;47.974;13.826;2023-12-20T22:02:59;3.80;99.90
30250;DHT22;17064;47.974;13.826;2023-12-20T22:08:19;3.70;99.90
30250;DHT22;17064;47.974;13.826;2023-12-20T22:13:38;3.70;99.90
30250;DHT22;17064;47.974;13.826;2023-12-20T22:19:00;3.70;99.90
30250;DHT22;17064;47.974;13.826;2023-12-20T22:24:20;3.90;99.90
30250;DHT22;17064;47.974;13.826;2023-12-20T22:29:40;4.10;99.90
30250;DHT22;17064;47.974;13.826;2023-12-20T22:35:00;4.20;99.90
30250;DHT22;17064;47.974;13.826;2023-12-20T22:40:19;4.20;99.90
30250;DHT22;17064;47.974;13.826;2023-12-20T22:45:39;4.10;99.90
30250;DHT22;17064;47.974;13.826;2023-12-20T22:51:01;4.10;99.90
30250;DHT22;17064;47.974;13.826;2023-12-20T22:56:20;4.00;99.90
30250;DHT22;17064;47.974;13.826;2023-12-20T23:01:39;4.10;99.90
30250;DHT22;17064;47.974;13.826;2023-12-20T23:06:59;4.20;99.90
30250;DHT22;17064;47.974;13.826;2023-12-20T23:12:19;4.10;99.90
30250;DHT22;17064;47.974;13.826;2023-12-20T23:17:38;4.00;99.90
30250;DHT22;17064;47.974;13.826;2023-12-20T23:22:57;4.10;99.90
30250;DHT22;17064;47.974;13.826;2023-12-20T23:28:16;4.00;99.90
30250;DHT22;17064;47.974;13.826;2023-12-20T23:33:35;4.00;99.90
30250;DHT22;17064;47.974;13.826;2023-12-20T23:38:54;4.00;99.90
30250;DHT22;17064;47.974;13.826;2023-12-20T23:44:14;3.90;99.90
30250;DHT22;17064;47.974;13.826;2023-12-20T23:49:33;3.90;99.90
30250;DHT22;17064;47.974;13.826;2023-12-20T23:54:52;3.80;99.90
